Time;durP1;ratioP1;P1;durP2;ratioP2;P2;SDS_P1;SDS_P2;PMS_P1;PMS_P2;Temp;Humidity;BMP_temperature;BMP_pressure;BME280_temperature;BME280_humidity;BME280_pressure;Samples;Min_cycle;Max_cycle;Signal;HPM_P1;HPM_P2
2023/01/13 00:02:07;;;;;;;0.20;0.20;;;;;;;9.57;100.00;99135.69;5057522;28;20645;-79
2023/01/13 00:04:34;;;;;;;0.20;0.20;;;;;;;9.55;100.00;99143.53;5047578;28;20208;-77
2023/01/13 00:07:00;;;;;;;0.70;0.30;;;;;;;9.66;100.00;99138.81;5049986;28;20255;-79
2023/01/13 00:09:27;;;;;;;0.40;0.40;;;;;;;9.67;100.00;99134.44;5056276;28;20233;-79
2023/01/13 00:11:55;;;;;;;0.20;0.20;;;;;;;9.56;100.00;99128.78;5056433;28;20230;-80
2023/01/13 00:14:22;;;;;;;0.73;0.20;;;;;;;9.53;100.00;99119.31;5056857;28;20220;-80
2023/01/13 00:16:48;;;;;;;0.30;0.30;;;;;;;9.51;100.00;99123.72;5043577;28;20270;-79
2023/01/13 00:19:14;;;;;;;0.20;0.20;;;;;;;9.57;100.00;99117.44;5049248;28;20675;-79
2023/01/13 00:21:40;;;;;;;0.33;0.23;;;;;;;9.50;100.00;99133.31;5054414;28;20232;-78
2023/01/13 00:24:07;;;;;;;1.23;0.30;;;;;;;9.49;100.00;99139.44;5054790;28;20625;-78
2023/01/13 00:26:34;;;;;;;0.27;0.27;;;;;;;9.50;100.00;99143.72;5054439;28;20235;-79
2023/01/13 00:29:01;;;;;;;0.20;0.20;;;;;;;9.54;100.00;99147.91;5055033;28;20209;-79
2023/01/13 00:31:29;;;;;;;0.40;0.40;;;;;;;9.56;100.00;99154.84;5054948;28;20210;-79
2023/01/13 00:33:56;;;;;;;0.20;0.20;;;;;;;9.59;100.00;99146.91;5055366;28;20247;-79
2023/01/13 00:36:23;;;;;;;0.57;0.30;;;;;;;9.62;100.00;99158.06;5056205;28;20210;-79
2023/01/13 00:38:49;;;;;;;0.73;0.23;;;;;;;9.59;100.00;99155.56;5055510;28;20262;-79
2023/01/13 00:41:17;;;;;;;0.50;0.40;;;;;;;9.64;100.00;99168.44;5054625;28;20297;-79
2023/01/13 00:43:45;;;;;;;1.03;0.40;;;;;;;9.61;100.00;99185.00;5055550;28;20207;-79
2023/01/13 00:46:13;;;;;;;0.30;0.30;;;;;;;9.67;100.00;99174.41;5047272;28;20247;-80
2023/01/13 00:48:39;;;;;;;0.30;0.20;;;;;;;9.73;100.00;99168.97;5046641;28;20228;-80
2023/01/13 00:51:09;;;;;;;0.20;0.20;;;;;;;9.67;100.00;99169.19;5043851;28;20222;-80
2023/01/13 00:53:37;;;;;;;0.30;0.30;;;;;;;9.66;100.00;99167.47;5053181;28;20668;-80
2023/01/13 00:56:06;;;;;;;0.83;0.30;;;;;;;9.71;100.00;99149.06;5055685;28;20220;-80
2023/01/13 00:58:33;;;;;;;0.40;0.20;;;;;;;9.71;100.00;99149.94;5055413;28;20229;-80
2023/01/13 01:01:02;;;;;;;0.73;0.33;;;;;;;9.73;100.00;99139.44;5055454;28;20229;-79
2023/01/13 01:03:28;;;;;;;0.73;0.20;;;;;;;9.76;100.00;99128.91;5048046;28;20733;-77
2023/01/13 01:05:54;;;;;;;0.57;0.20;;;;;;;9.73;100.00;99134.22;5037263;28;20197;-79
2023/01/13 01:08:21;;;;;;;0.30;0.30;;;;;;;9.70;100.00;99119.56;5037598;28;20202;-79
2023/01/13 01:10:47;;;;;;;1.03;0.30;;;;;;;9.67;100.00;99117.06;5036598;28;20720;-79
2023/01/13 01:13:16;;;;;;;0.60;0.33;;;;;;;9.69;100.00;99099.63;5037236;28;20266;-79
2023/01/13 01:15:43;;;;;;;1.40;0.30;;;;;;;9.73;100.00;99089.91;5037812;28;20220;-79
2023/01/13 01:18:10;;;;;;;0.20;0.20;;;;;;;9.65;100.00;99092.84;5037513;28;20253;-79
2023/01/13 01:20:37;;;;;;;0.50;0.30;;;;;;;9.73;100.00;99092.53;5035698;28;20236;-80
2023/01/13 01:23:04;;;;;;;0.30;0.30;;;;;;;9.79;100.00;99112.28;5038078;28;20260;-79
2023/01/13 01:25:31;;;;;;;0.37;0.30;;;;;;;9.85;100.00;99112.94;5038768;28;20210;-80
2023/01/13 01:27:58;;;;;;;0.83;0.30;;;;;;;9.79;100.00;99135.75;5038896;28;20264;-79
2023/01/13 01:30:24;;;;;;;0.87;0.40;;;;;;;9.75;100.00;99140.22;5037224;28;20262;-78
2023/01/13 01:32:51;;;;;;;0.67;0.40;;;;;;;9.77;100.00;99145.38;5037212;28;20221;-80
2023/01/13 01:35:18;;;;;;;0.40;0.20;;;;;;;9.77;100.00;99161.84;5045081;28;20220;-80
2023/01/13 01:37:45;;;;;;;0.20;0.20;;;;;;;9.82;100.00;99139.09;5056277;28;20633;-80
2023/01/13 01:40:12;;;;;;;0.30;0.30;;;;;;;9.78;100.00;99147.09;5056729;28;20233;-79
2023/01/13 01:45:24;;;;;;;0.53;0.40;;;;;;;9.75;100.00;99174.09;5056416;28;20703;-80
2023/01/13 01:47:55;;;;;;;0.20;0.20;;;;;;;9.72;100.00;99193.31;5060098;28;20209;-80
2023/01/13 01:50:23;;;;;;;0.20;0.20;;;;;;;9.67;100.00;99223.03;5057734;28;20222;-79
2023/01/13 01:52:56;;;;;;;0.50;0.20;;;;;;;9.79;98.74;99255.63;5050764;28;20573;-79
2023/01/13 01:55:27;;;;;;;0.40;0.20;;;;;;;9.80;97.35;99306.84;5059256;28;20209;-79
2023/01/13 01:57:58;;;;;;;0.57;0.10;;;;;;;9.79;96.32;99332.06;5059327;28;20255;-79
2023/01/13 02:00:26;;;;;;;0.40;0.40;;;;;;;9.78;94.96;99352.97;5058111;28;20240;-79
2023/01/13 02:02:53;;;;;;;2.33;0.40;;;;;;;9.71;93.59;99381.84;5058242;28;20228;-80
2023/01/13 02:05:20;;;;;;;0.97;0.40;;;;;;;9.76;93.90;99373.88;5058596;28;20205;-79
2023/01/13 02:07:51;;;;;;;0.97;0.30;;;;;;;9.69;91.75;99425.34;5059233;28;20197;-79
2023/01/13 02:10:19;;;;;;;1.63;0.30;;;;;;;9.69;91.50;99459.22;5058183;28;20229;-79
2023/01/13 02:12:46;;;;;;;0.93;0.40;;;;;;;9.54;88.51;99499.59;5058629;28;20201;-79
2023/01/13 02:15:15;;;;;;;2.63;0.30;;;;;;;9.60;88.45;99518.56;5058373;28;20208;-79
2023/01/13 02:18:00;;;;;;;1.93;0.40;;;;;;;9.65;89.29;99529.69;5049753;28;20716;-79
2023/01/13 02:20:50;;;;;;;2.53;0.33;;;;;;;9.58;88.20;99539.44;5053534;28;20580;-78
2023/01/13 02:27:20;;;;;;;0.93;0.40;;;;;;;9.63;88.17;99553.22;5058547;28;20234;-79
2023/01/13 02:33:17;;;;;;;1.77;0.47;;;;;;;9.59;87.77;99572.41;5051420;28;20220;-79
2023/01/13 02:35:50;;;;;;;1.13;0.50;;;;;;;9.66;88.01;99560.06;5058267;28;20213;-78
2023/01/13 02:38:21;;;;;;;1.63;0.50;;;;;;;9.64;89.50;99533.22;5057929;28;20236;-79
2023/01/13 02:40:55;;;;;;;0.67;0.40;;;;;;;9.60;90.49;99492.50;5057919;28;20229;-79
2023/01/13 02:46:21;;;;;;;0.67;0.30;;;;;;;9.46;94.32;99412.19;5054395;28;20711;-80
2023/01/13 02:48:50;;;;;;;1.37;0.50;;;;;;;9.46;96.48;99347.91;5048490;28;20211;-78
2023/01/13 02:51:21;;;;;;;1.27;0.50;;;;;;;9.50;97.33;99315.63;5057252;28;20278;-80
2023/01/13 02:53:53;;;;;;;0.80;0.40;;;;;;;9.46;97.63;99293.19;5057912;28;20216;-78
2023/01/13 02:56:22;;;;;;;0.93;0.50;;;;;;;9.50;98.10;99267.91;5053988;28;20210;-79
2023/01/13 02:58:49;;;;;;;1.93;0.50;;;;;;;9.50;97.98;99258.34;5048722;28;20258;-80
2023/01/13 03:01:17;;;;;;;1.27;0.60;;;;;;;9.44;97.46;99263.75;5057346;28;20221;-79
2023/01/13 03:03:43;;;;;;;2.87;0.70;;;;;;;9.35;95.77;99305.72;5057441;28;20212;-78
2023/01/13 03:06:25;;;;;;;2.13;0.60;;;;;;;9.42;95.73;99328.06;5057857;28;20279;-79
2023/01/13 03:09:00;;;;;;;1.50;0.57;;;;;;;9.41;95.75;99344.56;5057126;28;20630;-79
2023/01/13 03:11:34;;;;;;;1.60;1.10;;;;;;;9.39;95.50;99341.16;5050273;28;20227;-79
2023/01/13 03:14:12;;;;;;;2.80;1.53;;;;;;;9.36;94.67;99356.06;5038454;28;20546;-79
2023/01/13 03:16:53;;;;;;;1.87;1.37;;;;;;;9.41;94.45;99368.03;5037461;28;20304;-78
2023/01/13 03:19:35;;;;;;;1.27;1.17;;;;;;;9.27;93.40;99384.06;5037104;28;20271;-79
2023/01/13 03:22:10;;;;;;;2.17;0.90;;;;;;;9.28;92.64;99390.16;5036140;28;20264;-80
2023/01/13 03:24:40;;;;;;;1.93;1.00;;;;;;;9.24;93.50;99401.56;5037794;28;20251;-79
2023/01/13 03:27:12;;;;;;;1.03;0.63;;;;;;;9.24;92.96;99406.78;5036787;28;20716;-79
2023/01/13 03:29:42;;;;;;;1.40;0.67;;;;;;;9.33;93.02;99398.66;5036702;28;20283;-80
2023/01/13 03:32:16;;;;;;;0.90;0.63;;;;;;;9.28;92.91;99411.84;5036940;28;20217;-79
2023/01/13 03:34:47;;;;;;;0.60;0.60;;;;;;;9.14;92.43;99407.03;5036733;28;20212;-78
2023/01/13 03:37:16;;;;;;;2.37;0.80;;;;;;;9.22;91.79;99429.41;5037060;28;20267;-80
2023/01/13 03:39:48;;;;;;;2.00;0.60;;;;;;;9.28;90.88;99455.25;5036411;28;20262;-80
2023/01/13 03:42:18;;;;;;;1.30;0.83;;;;;;;9.27;89.30;99482.19;5042330;28;20201;-79
2023/01/13 03:44:48;;;;;;;2.83;1.50;;;;;;;9.31;86.80;99543.69;5045365;28;20270;-78
2023/01/13 03:47:21;;;;;;;5.83;1.33;;;;;;;9.36;85.20;99546.19;5050398;28;20212;-79
2023/01/13 03:49:54;;;;;;;4.93;1.70;;;;;;;9.38;85.31;99599.94;5055801;28;20840;-78
2023/01/13 03:52:24;;;;;;;3.77;1.20;;;;;;;9.25;84.55;99617.63;5056860;28;20236;-79
2023/01/13 03:54:56;;;;;;;3.67;1.10;;;;;;;9.29;85.03;99621.00;5056481;28;20233;-80
2023/01/13 03:57:28;;;;;;;3.57;1.30;;;;;;;9.27;84.50;99631.47;5055710;28;20205;-79
2023/01/13 03:59:58;;;;;;;2.57;1.30;;;;;;;9.27;82.32;99669.66;5055549;28;20225;-79
2023/01/13 04:02:37;;;;;;;3.87;1.97;;;;;;;9.25;82.37;99689.69;5050017;28;20730;-79
2023/01/13 04:05:07;;;;;;;4.20;1.87;;;;;;;9.37;83.69;99686.75;5041873;28;20258;-79
2023/01/13 04:07:45;;;;;;;3.17;1.43;;;;;;;9.29;83.78;99670.50;5055935;28;20209;-80
2023/01/13 04:10:16;;;;;;;4.93;2.00;;;;;;;9.20;85.11;99639.50;5055096;28;20258;-79
2023/01/13 04:13:01;;;;;;;3.40;1.67;;;;;;;9.23;88.19;99580.34;5056295;28;20219;-79
2023/01/13 04:15:29;;;;;;;3.63;2.30;;;;;;;9.32;88.24;99529.78;5056421;28;20295;-79
2023/01/13 04:18:09;;;;;;;6.77;1.60;;;;;;;9.28;86.94;99535.97;5056404;28;20228;-80
2023/01/13 04:20:35;;;;;;;4.23;1.23;;;;;;;9.31;87.79;99533.28;5056081;28;20727;-79
2023/01/13 04:23:02;;;;;;;2.27;1.30;;;;;;;9.28;87.31;99523.81;5049025;28;20205;-80
2023/01/13 04:25:28;;;;;;;1.93;1.07;;;;;;;9.23;86.96;99533.50;5048117;28;20588;-79
2023/01/13 04:27:55;;;;;;;3.70;1.30;;;;;;;9.24;88.21;99506.56;5056341;28;20247;-79
2023/01/13 04:30:21;;;;;;;4.23;1.30;;;;;;;9.09;87.61;99507.00;5055747;28;20220;-79
2023/01/13 04:32:48;;;;;;;5.33;1.10;;;;;;;9.20;88.17;99496.28;5051946;28;20634;-80
2023/01/13 04:35:15;;;;;;;2.00;1.73;;;;;;;9.21;88.64;99487.56;5050293;28;20208;-79
2023/01/13 04:37:42;;;;;;;2.73;1.30;;;;;;;9.31;89.51;99474.22;5057032;28;20282;-79
2023/01/13 04:40:09;;;;;;;2.63;1.10;;;;;;;9.33;90.25;99443.78;5055668;28;20236;-79
2023/01/13 04:42:35;;;;;;;3.40;1.30;;;;;;;9.20;88.21;99473.69;5057096;28;20208;-80
2023/01/13 04:45:02;;;;;;;3.97;2.00;;;;;;;9.24;87.12;99522.19;5055895;28;20251;-79
2023/01/13 04:47:28;;;;;;;2.50;2.00;;;;;;;9.20;86.86;99525.78;5055699;28;20742;-79
2023/01/13 04:49:54;;;;;;;5.93;1.80;;;;;;;9.26;87.04;99525.59;5055477;28;20268;-78
2023/01/13 04:52:22;;;;;;;5.67;1.90;;;;;;;9.18;86.76;99548.41;5056848;28;20235;-79
2023/01/13 04:54:48;;;;;;;3.40;1.80;;;;;;;9.02;83.78;99599.16;5051252;28;20224;-79
2023/01/13 04:57:14;;;;;;;4.70;1.90;;;;;;;8.93;81.50;99671.38;5046830;28;20266;-79
2023/01/13 04:59:41;;;;;;;5.33;2.10;;;;;;;8.97;81.57;99687.78;5053578;28;20228;-79
2023/01/13 05:02:08;;;;;;;9.37;2.53;;;;;;;8.91;80.67;99719.16;5054168;28;20218;-79
2023/01/13 05:04:34;;;;;;;5.77;2.00;;;;;;;8.89;81.14;99711.38;5054155;28;20300;-80
2023/01/13 05:07:01;;;;;;;6.37;2.57;;;;;;;8.93;82.57;99691.34;5054463;28;20256;-80
2023/01/13 05:09:28;;;;;;;7.67;2.57;;;;;;;8.77;82.62;99698.66;5050679;28;20274;-79
2023/01/13 05:17:24;;;;;;;10.27;3.10;;;;;;;8.79;83.28;99686.47;5054307;28;20227;-79
2023/01/13 05:19:51;;;;;;;8.17;2.73;;;;;;;8.75;82.76;99669.22;5053920;28;20671;-80
2023/01/13 05:25:21;;;;;;;7.73;2.33;;;;;;;8.92;85.02;99641.06;5058115;28;20718;-79
2023/01/13 05:27:48;;;;;;;5.60;2.30;;;;;;;8.78;86.64;99582.44;5058279;28;20215;-79
2023/01/13 05:30:14;;;;;;;10.30;3.17;;;;;;;8.75;83.92;99580.75;5057483;28;20757;-80
2023/01/13 05:32:41;;;;;;;7.87;1.93;;;;;;;8.57;81.03;99649.72;5054349;28;20236;-79
2023/01/13 05:35:08;;;;;;;8.20;2.60;;;;;;;8.63;80.83;99691.19;5051091;28;20205;-78
2023/01/13 05:37:35;;;;;;;8.70;1.73;;;;;;;8.67;79.75;99723.19;5057995;28;20235;-79
2023/01/13 05:45:31;;;;;;;6.57;1.90;;;;;;;8.61;79.66;99734.59;5057660;28;20211;-79
2023/01/13 05:47:58;;;;;;;7.50;1.93;;;;;;;8.54;79.99;99725.19;5057779;28;20212;-79
2023/01/13 05:50:24;;;;;;;5.43;2.33;;;;;;;8.66;80.63;99708.47;5056993;28;20769;-78
2023/01/13 05:52:51;;;;;;;4.30;1.67;;;;;;;8.57;80.14;99734.69;5057178;28;20209;-78
2023/01/13 05:55:18;;;;;;;7.07;2.40;;;;;;;8.50;78.54;99772.97;5053780;28;20885;-80
2023/01/13 05:57:45;;;;;;;8.27;2.77;;;;;;;8.60;79.63;99766.69;5047155;28;20586;-79
2023/01/13 06:00:12;;;;;;;6.77;2.03;;;;;;;8.71;79.92;99748.25;5056981;28;20247;-80
2023/01/13 06:02:38;;;;;;;7.73;1.97;;;;;;;8.45;79.49;99741.88;5057906;28;20285;-80
2023/01/13 06:05:05;;;;;;;5.17;1.90;;;;;;;8.50;80.62;99747.84;5057508;28;20271;-79
2023/01/13 06:07:31;;;;;;;5.50;1.70;;;;;;;8.57;80.69;99730.34;5054829;28;20251;-79
2023/01/13 06:09:57;;;;;;;10.47;1.63;;;;;;;8.66;81.07;99730.16;5049968;28;20215;-79
2023/01/13 06:12:25;;;;;;;6.37;1.20;;;;;;;8.60;79.48;99727.66;5057051;28;20234;-80
2023/01/13 06:14:51;;;;;;;3.27;1.50;;;;;;;8.61;78.38;99770.16;5050011;28;20201;-79
2023/01/13 06:17:18;;;;;;;4.80;1.50;;;;;;;8.74;79.68;99779.38;5029478;28;20198;-78
2023/01/13 06:19:44;;;;;;;6.20;1.43;;;;;;;8.68;79.63;99772.59;5027275;28;20259;-79
2023/01/13 06:22:13;;;;;;;3.87;0.97;;;;;;;8.61;78.58;99765.81;5026066;28;20346;-79
2023/01/13 06:24:39;;;;;;;2.77;1.40;;;;;;;8.63;77.50;99813.47;5031736;28;20206;-80
2023/01/13 06:27:07;;;;;;;3.87;1.00;;;;;;;8.59;77.01;99832.63;5033948;28;20229;-78
2023/01/13 06:29:35;;;;;;;4.63;1.00;;;;;;;8.68;76.62;99824.63;5030302;28;20284;-79
2023/01/13 06:32:03;;;;;;;3.07;0.90;;;;;;;8.66;75.24;99865.44;5025749;28;20229;-80
2023/01/13 06:34:29;;;;;;;5.00;0.97;;;;;;;8.73;75.44;99885.22;5026893;28;20209;-80
2023/01/13 06:36:56;;;;;;;4.47;1.13;;;;;;;8.71;75.02;99900.00;5028274;28;20233;-79
2023/01/13 06:39:27;;;;;;;3.43;1.33;;;;;;;8.74;75.97;99901.69;5025442;28;20221;-79
2023/01/13 06:44:54;;;;;;;5.97;1.20;;;;;;;8.55;74.74;99919.41;4948634;29;20687;-80
2023/01/13 06:47:21;;;;;;;10.70;1.10;;;;;;;8.68;75.62;99907.91;4946557;29;20387;-80
2023/01/13 06:49:47;;;;;;;3.00;1.00;;;;;;;8.74;76.19;99884.34;4981723;28;20223;-79
2023/01/13 06:52:14;;;;;;;5.17;1.70;;;;;;;8.75;76.08;99852.22;5026340;28;20261;-79
2023/01/13 06:54:40;;;;;;;6.20;1.60;;;;;;;8.80;75.44;99865.16;5025759;28;20324;-78
2023/01/13 06:57:07;;;;;;;4.57;1.40;;;;;;;8.69;75.10;99882.72;5030496;28;20214;-78
2023/01/13 06:59:34;;;;;;;6.63;2.00;;;;;;;8.65;74.06;99918.34;5032778;28;20717;-80
2023/01/13 07:02:02;;;;;;;8.43;2.67;;;;;;;8.73;76.09;99908.66;5026629;28;20635;-78
2023/01/13 07:04:28;;;;;;;4.43;1.50;;;;;;;8.55;73.66;99935.03;5027770;28;20203;-80
2023/01/13 07:06:55;;;;;;;8.77;1.40;;;;;;;8.65;74.36;99954.78;5030093;28;20263;-78
2023/01/13 07:09:21;;;;;;;7.30;1.57;;;;;;;8.64;74.32;99952.19;5028215;28;20244;-80
2023/01/13 07:11:47;;;;;;;6.93;1.20;;;;;;;8.66;73.60;99938.28;5029577;28;20222;-79
2023/01/13 07:16:57;;;;;;;7.23;1.77;;;;;;;8.73;73.36;99959.84;5027679;28;20212;-82
2023/01/13 07:19:25;;;;;;;3.83;1.13;;;;;;;8.76;73.75;99965.00;5026057;28;20245;-82
2023/01/13 07:21:51;;;;;;;5.67;1.00;;;;;;;8.84;73.94;99980.44;5025723;28;20247;-81
2023/01/13 07:24:18;;;;;;;8.10;1.90;;;;;;;8.77;72.24;99981.47;5022850;28;20481;-79
2023/01/13 07:26:44;;;;;;;7.13;1.30;;;;;;;8.83;72.72;99990.00;5029941;28;20225;-78
2023/01/13 07:29:11;;;;;;;7.90;1.63;;;;;;;8.91;73.30;99987.25;5027718;28;20222;-80
2023/01/13 07:31:38;;;;;;;5.60;1.60;;;;;;;8.85;72.02;99995.19;5027115;28;20206;-81
2023/01/13 07:34:05;;;;;;;5.67;1.10;;;;;;;8.81;73.16;100014.34;5034807;28;20203;-79
2023/01/13 07:36:32;;;;;;;6.07;1.70;;;;;;;8.79;73.31;100001.34;5055762;28;20251;-79
2023/01/13 07:38:59;;;;;;;6.30;2.70;;;;;;;8.79;74.03;100000.50;5056120;28;20808;-79
2023/01/13 07:44:10;;;;;;;2.60;1.03;;;;;;;8.75;73.34;99981.47;5049432;28;20205;-80
2023/01/13 07:46:36;;;;;;;6.53;1.53;;;;;;;8.74;73.45;99979.75;5044608;28;20213;-80
2023/01/13 07:49:03;;;;;;;7.77;1.60;;;;;;;8.68;72.57;99972.94;5055787;28;20255;-80
2023/01/13 07:51:30;;;;;;;8.83;2.30;;;;;;;8.53;72.94;99992.28;5044711;28;20230;-82
2023/01/13 07:53:57;;;;;;;8.13;1.23;;;;;;;8.43;73.10;99977.72;5024650;28;20676;-79
2023/01/13 07:56:24;;;;;;;4.73;1.20;;;;;;;8.52;74.01;99968.88;5025805;28;20242;-81
2023/01/13 07:58:52;;;;;;;2.93;1.10;;;;;;;8.52;74.37;99943.75;5031917;28;20228;-79
2023/01/13 08:01:19;;;;;;;3.90;1.20;;;;;;;8.57;74.32;99951.47;5024808;28;20223;-78
2023/01/13 08:03:45;;;;;;;3.93;1.07;;;;;;;8.59;74.19;99951.44;5014273;28;20264;-79
2023/01/13 08:06:12;;;;;;;3.43;1.47;;;;;;;8.54;75.00;99941.97;5013906;28;20617;-79
2023/01/13 08:08:39;;;;;;;5.93;1.30;;;;;;;8.59;74.26;99928.03;5014287;28;20583;-79
2023/01/13 08:11:08;;;;;;;4.27;1.30;;;;;;;8.67;75.25;99924.38;5013479;28;20227;-77
2023/01/13 08:13:35;;;;;;;4.57;1.60;;;;;;;8.54;74.81;99923.78;5014280;28;20269;-79
2023/01/13 08:16:04;;;;;;;7.27;1.10;;;;;;;8.53;75.12;99898.63;5013282;28;20238;-78
2023/01/13 08:18:32;;;;;;;4.33;1.70;;;;;;;8.59;75.70;99894.22;5037610;28;20213;-79
2023/01/13 08:21:02;;;;;;;8.20;1.13;;;;;;;8.53;76.41;99883.03;5045605;28;20221;-79
2023/01/13 08:23:28;;;;;;;6.03;1.47;;;;;;;8.41;76.44;99858.97;5054013;28;20209;-78
2023/01/13 08:25:58;;;;;;;7.87;1.80;;;;;;;8.38;76.85;99853.81;5053319;28;20701;-78
2023/01/13 08:28:26;;;;;;;11.67;1.63;;;;;;;8.49;75.99;99855.38;5053342;28;20213;-78
2023/01/13 08:30:53;;;;;;;3.90;1.37;;;;;;;8.32;76.27;99847.00;5052482;28;20666;-79
2023/01/13 08:33:20;;;;;;;4.93;1.37;;;;;;;8.47;76.38;99851.94;5053372;28;20215;-78
2023/01/13 08:35:47;;;;;;;9.40;1.73;;;;;;;8.48;76.04;99848.47;5053594;28;20201;-78
2023/01/13 08:38:14;;;;;;;4.63;1.43;;;;;;;8.45;76.08;99842.47;5053373;28;20208;-78
2023/01/13 08:40:40;;;;;;;5.93;1.50;;;;;;;8.52;77.05;99849.22;5052818;28;20260;-77
2023/01/13 08:43:06;;;;;;;5.53;1.40;;;;;;;8.40;76.31;99857.25;5052651;28;20244;-78
2023/01/13 08:45:34;;;;;;;7.43;1.23;;;;;;;8.52;76.30;99859.63;5052449;28;20266;-78
2023/01/13 08:48:01;;;;;;;8.17;2.07;;;;;;;8.55;77.19;99842.22;5041422;28;20684;-79
2023/01/13 08:50:28;;;;;;;3.93;1.20;;;;;;;8.49;75.24;99854.50;5028056;28;20284;-79
2023/01/13 08:52:54;;;;;;;3.83;1.50;;;;;;;8.48;75.36;99861.47;5023233;28;20197;-79
2023/01/13 08:55:21;;;;;;;7.40;1.60;;;;;;;8.40;74.10;99906.66;5024053;28;20720;-80
2023/01/13 08:57:47;;;;;;;11.20;2.17;;;;;;;8.52;75.14;99911.66;5021846;28;20204;-78
2023/01/13 09:00:15;;;;;;;4.40;1.50;;;;;;;8.43;73.79;99917.06;5021937;28;20236;-78
2023/01/13 09:02:43;;;;;;;6.10;1.30;;;;;;;8.30;72.86;99958.81;5023086;28;20686;-79
2023/01/13 09:05:10;;;;;;;3.20;1.57;;;;;;;8.46;73.82;99956.88;5022376;28;20229;-79
2023/01/13 09:07:38;;;;;;;6.00;1.53;;;;;;;8.50;73.73;99945.53;5022098;28;20206;-78
2023/01/13 09:10:07;;;;;;;4.53;1.40;;;;;;;8.52;72.20;99972.38;5023574;28;20241;-80
2023/01/13 09:15:18;;;;;;;5.27;1.63;;;;;;;8.57;70.53;100039.06;5022937;28;20208;-78
2023/01/13 09:17:46;;;;;;;4.30;1.27;;;;;;;8.43;70.99;100063.56;5025602;28;20206;-78
2023/01/13 09:20:13;;;;;;;3.43;1.20;;;;;;;8.48;71.79;100047.88;5027821;28;20226;-79
2023/01/13 09:22:40;;;;;;;4.73;2.27;;;;;;;8.50;72.11;100033.09;5023356;28;20898;-79
2023/01/13 09:25:07;;;;;;;5.43;1.77;;;;;;;8.49;71.81;100034.84;5020980;28;20237;-78
2023/01/13 09:27:33;;;;;;;4.90;1.73;;;;;;;8.37;70.66;100035.00;5022879;28;20201;-78
2023/01/13 09:29:59;;;;;;;5.47;1.67;;;;;;;8.36;71.57;100051.50;5022972;28;20645;-79
2023/01/13 09:32:25;;;;;;;4.70;1.40;;;;;;;8.45;71.67;100045.34;5021809;28;20202;-78
2023/01/13 09:34:58;;;;;;;5.80;1.43;;;;;;;8.47;71.81;100044.41;5022597;28;20271;-79
2023/01/13 09:37:25;;;;;;;5.40;1.97;;;;;;;8.54;72.98;100034.75;5023083;28;20223;-79
2023/01/13 09:39:51;;;;;;;10.10;3.00;;;;;;;8.48;71.90;100027.94;5021832;28;20226;-78
2023/01/13 09:45:14;;;;;;;5.87;2.00;;;;;;;8.47;71.11;100035.75;5021290;28;20210;-79
2023/01/13 09:47:50;;;;;;;4.17;1.80;;;;;;;8.39;71.07;100041.03;5025337;28;20210;-79
2023/01/13 09:50:29;;;;;;;6.47;1.87;;;;;;;8.40;70.73;100028.91;5027601;28;20226;-78
2023/01/13 09:52:57;;;;;;;6.67;2.77;;;;;;;8.51;71.08;100035.66;5022482;28;20202;-79
2023/01/13 09:55:29;;;;;;;4.93;1.70;;;;;;;8.53;70.87;100046.06;5020875;28;20202;-80
2023/01/13 09:57:56;;;;;;;4.37;1.37;;;;;;;8.66;71.67;100028.47;5022275;28;20734;-79
2023/01/13 10:00:25;;;;;;;4.03;1.30;;;;;;;8.70;70.79;100038.81;5022678;28;20226;-79
2023/01/13 10:03:08;;;;;;;5.17;1.70;;;;;;;8.55;70.49;100057.28;5022366;28;20262;-78
2023/01/13 10:05:38;;;;;;;5.27;1.57;;;;;;;8.54;70.40;100058.16;5022557;28;20211;-78
2023/01/13 10:08:11;;;;;;;5.67;2.27;;;;;;;8.64;71.31;100051.94;5023467;28;20201;-80
2023/01/13 10:10:42;;;;;;;5.30;1.77;;;;;;;8.51;71.12;100030.47;5030168;28;20280;-79
2023/01/13 10:13:18;;;;;;;5.23;2.03;;;;;;;8.39;70.70;100054.06;5035956;28;20232;-79
2023/01/13 10:15:55;;;;;;;4.97;1.90;;;;;;;8.59;71.65;100042.50;5035293;28;20205;-79
2023/01/13 10:18:27;;;;;;;3.70;1.50;;;;;;;8.54;70.65;100038.22;5043016;28;20262;-79
2023/01/13 10:21:07;;;;;;;3.63;1.60;;;;;;;8.60;71.22;100025.97;5043774;28;20256;-79
2023/01/13 10:23:43;;;;;;;5.60;1.30;;;;;;;8.47;70.60;100031.41;5035976;28;20206;-79
2023/01/13 10:26:44;;;;;;;8.43;2.07;;;;;;;8.63;71.82;100012.94;5035544;28;20209;-79
2023/01/13 10:29:23;;;;;;;5.90;1.73;;;;;;;8.55;70.83;100015.66;5024821;28;20202;-79
2023/01/13 10:31:50;;;;;;;5.27;1.27;;;;;;;8.68;70.40;100037.09;5023468;28;20258;-80
2023/01/13 10:34:16;;;;;;;4.63;1.53;;;;;;;8.44;69.47;100062.66;5035903;28;20208;-79
2023/01/13 10:36:57;;;;;;;4.73;2.23;;;;;;;8.59;69.32;100097.13;5046848;28;20212;-78
2023/01/13 10:39:25;;;;;;;5.53;1.47;;;;;;;8.58;70.11;100078.03;5054860;28;20267;-79
2023/01/13 10:42:01;;;;;;;4.50;1.50;;;;;;;8.64;70.30;100066.66;5045737;28;20201;-79
2023/01/13 10:44:27;;;;;;;4.97;1.00;;;;;;;8.70;71.02;100044.03;5051307;28;20263;-79
2023/01/13 10:46:56;;;;;;;5.70;1.83;;;;;;;8.66;69.82;100057.09;5055242;28;20205;-79
2023/01/13 10:49:29;;;;;;;5.93;1.67;;;;;;;8.74;71.78;100040.47;5054703;28;20275;-79
2023/01/13 10:51:57;;;;;;;2.90;1.23;;;;;;;8.78;69.50;100041.28;5054264;28;20220;-79
2023/01/13 10:54:25;;;;;;;7.97;1.67;;;;;;;8.60;68.90;100086.66;4340558;28;10000757;-79
2023/01/13 10:57:14;;;;;;;3.40;1.40;;;;;;;8.68;68.33;100090.03;5031423;28;20326;-79
2023/01/13 10:59:40;;;;;;;3.10;1.20;;;;;;;8.70;68.72;100123.81;5031574;28;20238;-77
2023/01/13 11:02:19;;;;;;;3.80;1.40;;;;;;;8.65;67.71;100144.72;5035843;28;20251;-79
2023/01/13 11:05:01;;;;;;;5.53;1.33;;;;;;;8.74;68.91;100152.38;5043660;28;20217;-78
2023/01/13 11:07:33;;;;;;;5.87;2.00;;;;;;;8.63;66.87;100125.66;5052233;28;20216;-78
2023/01/13 11:10:09;;;;;;;4.70;1.20;;;;;;;8.68;67.71;100169.81;5050985;28;20263;-78
2023/01/13 11:12:50;;;;;;;10.97;1.43;;;;;;;8.70;67.80;100184.53;5047608;28;20201;-77
2023/01/13 11:15:21;;;;;;;4.57;1.40;;;;;;;8.78;68.29;100170.53;5043299;28;20263;-79
2023/01/13 11:17:59;;;;;;;5.50;1.37;;;;;;;8.51;66.61;100176.13;5054768;28;20213;-79
2023/01/13 11:20:31;;;;;;;4.97;1.90;;;;;;;8.58;66.72;100194.25;5057640;28;20236;-79
2023/01/13 11:23:02;;;;;;;8.63;1.70;;;;;;;8.70;67.92;100205.34;5055899;28;20288;-79
2023/01/13 11:25:34;;;;;;;5.23;1.97;;;;;;;8.81;67.82;100188.72;5056448;28;20216;-80
2023/01/13 11:28:05;;;;;;;4.70;1.57;;;;;;;8.68;67.96;100195.84;5058243;28;20255;-80
2023/01/13 11:30:40;;;;;;;3.90;1.20;;;;;;;8.71;68.34;100182.78;5057484;28;20229;-79
2023/01/13 11:33:19;;;;;;;7.30;1.70;;;;;;;8.77;68.17;100164.47;5054376;28;20207;-80
2023/01/13 11:35:51;;;;;;;4.43;1.40;;;;;;;8.80;69.00;100155.75;5047145;28;20197;-79
2023/01/13 11:38:28;;;;;;;4.17;1.30;;;;;;;8.75;68.27;100169.69;5052697;28;20213;-79
2023/01/13 11:41:00;;;;;;;5.17;1.90;;;;;;;8.63;68.37;100182.03;5051459;28;20609;-79
2023/01/13 11:43:32;;;;;;;5.73;1.77;;;;;;;8.65;68.97;100170.72;5051924;28;20209;-79
2023/01/13 11:46:00;;;;;;;6.27;1.80;;;;;;;8.52;67.77;100150.97;5044233;28;20205;-79
2023/01/13 11:48:29;;;;;;;3.63;1.60;;;;;;;8.67;68.75;100149.91;5047819;28;20203;-78
2023/01/13 11:51:02;;;;;;;4.63;1.60;;;;;;;8.72;69.15;100141.13;5051659;28;20221;-79
2023/01/13 11:53:47;;;;;;;4.70;1.20;;;;;;;8.54;68.96;100137.09;5047150;28;20221;-79
2023/01/13 11:56:32;;;;;;;5.57;1.57;;;;;;;8.66;69.01;100128.22;5026310;28;20205;-79
2023/01/13 11:59:18;;;;;;;5.10;1.40;;;;;;;8.67;68.66;100134.28;5031672;28;20271;-80
2023/01/13 12:02:00;;;;;;;4.30;1.77;;;;;;;8.85;69.62;100118.34;5030273;28;20237;-79
2023/01/13 12:04:32;;;;;;;5.47;1.90;;;;;;;8.86;68.86;100111.41;5039102;28;20675;-78
2023/01/13 12:07:11;;;;;;;8.00;2.17;;;;;;;8.95;68.68;100114.69;5011920;28;20304;-78
2023/01/13 12:09:51;;;;;;;6.83;2.03;;;;;;;8.96;68.87;100131.19;5012045;28;20240;-79
2023/01/13 12:12:31;;;;;;;5.43;1.50;;;;;;;8.86;68.28;100114.00;5011446;28;20225;-79
2023/01/13 12:15:20;;;;;;;3.20;1.50;;;;;;;8.98;68.58;100125.94;5011709;28;20665;-79
2023/01/13 12:17:59;;;;;;;5.13;1.97;;;;;;;9.03;68.46;100132.78;5011480;28;20229;-80
2023/01/13 12:20:34;;;;;;;8.57;2.80;;;;;;;8.86;66.99;100137.41;5010608;28;20234;-79
2023/01/13 12:23:07;;;;;;;7.17;1.70;;;;;;;9.05;68.70;100136.22;5019501;28;20247;-80
2023/01/13 12:25:42;;;;;;;7.23;2.27;;;;;;;8.88;67.91;100130.44;5020708;28;20207;-79
2023/01/13 12:28:13;;;;;;;4.07;1.60;;;;;;;9.05;68.92;100130.16;5020809;28;20202;-80
2023/01/13 12:30:45;;;;;;;4.67;1.13;;;;;;;9.02;68.41;100135.41;5018780;28;20296;-80
2023/01/13 12:33:19;;;;;;;6.47;1.83;;;;;;;9.11;68.64;100145.69;5025942;28;20302;-80